sensor_id;sensor_type;location;lat;lon;timestamp;temperature;humidity
67354;SHT30;54238;52.278;21.056;2022-09-27T00:00:08;14.24;76.74
67354;SHT30;54238;52.278;21.056;2022-09-27T00:02:59;14.26;76.80
67354;SHT30;54238;52.278;21.056;2022-09-27T00:05:31;14.27;76.81
67354;SHT30;54238;52.278;21.056;2022-09-27T00:08:00;14.29;76.80
67354;SHT30;54238;52.278;21.056;2022-09-27T00:10:30;14.30;76.85
67354;SHT30;54238;52.278;21.056;2022-09-27T00:15:57;14.32;76.93
67354;SHT30;54238;52.278;21.056;2022-09-27T00:18:33;14.32;76.95
67354;SHT30;54238;52.278;21.056;2022-09-27T00:21:06;14.32;76.99
67354;SHT30;54238;52.278;21.056;2022-09-27T00:23:38;14.33;77.09
67354;SHT30;54238;52.278;21.056;2022-09-27T00:26:06;14.33;77.16
67354;SHT30;54238;52.278;21.056;2022-09-27T00:28:36;14.32;77.12
67354;SHT30;54238;52.278;21.056;2022-09-27T00:31:03;14.33;77.13
67354;SHT30;54238;52.278;21.056;2022-09-27T00:33:40;14.34;77.15
67354;SHT30;54238;52.278;21.056;2022-09-27T00:36:09;14.35;77.18
67354;SHT30;54238;52.278;21.056;2022-09-27T00:38:40;14.36;77.17
67354;SHT30;54238;52.278;21.056;2022-09-27T00:41:13;14.35;77.21
67354;SHT30;54238;52.278;21.056;2022-09-27T00:43:56;14.35;77.19
67354;SHT30;54238;52.278;21.056;2022-09-27T00:46:41;14.38;77.12
67354;SHT30;54238;52.278;21.056;2022-09-27T00:51:56;14.37;77.15
67354;SHT30;54238;52.278;21.056;2022-09-27T00:54:37;14.36;77.17
67354;SHT30;54238;52.278;21.056;2022-09-27T00:57:09;14.35;77.25
67354;SHT30;54238;52.278;21.056;2022-09-27T00:59:43;14.31;77.34
67354;SHT30;54238;52.278;21.056;2022-09-27T01:02:21;14.28;77.47
67354;SHT30;54238;52.278;21.056;2022-09-27T01:04:53;14.27;77.54
67354;SHT30;54238;52.278;21.056;2022-09-27T01:07:22;14.27;77.63
67354;SHT30;54238;52.278;21.056;2022-09-27T01:09:51;14.26;77.62
67354;SHT30;54238;52.278;21.056;2022-09-27T01:18:09;14.26;77.64
67354;SHT30;54238;52.278;21.056;2022-09-27T01:44:42;14.37;77.58
67354;SHT30;54238;52.278;21.056;2022-09-27T01:47:46;14.36;77.58
67354;SHT30;54238;52.278;21.056;2022-09-27T01:50:29;14.33;77.60
67354;SHT30;54238;52.278;21.056;2022-09-27T01:53:06;14.32;77.63
67354;SHT30;54238;52.278;21.056;2022-09-27T01:55:42;14.33;77.65
67354;SHT30;54238;52.278;21.056;2022-09-27T02:00:58;14.30;77.67
67354;SHT30;54238;52.278;21.056;2022-09-27T02:04:06;14.27;77.77
67354;SHT30;54238;52.278;21.056;2022-09-27T02:06:46;14.22;77.89
67354;SHT30;54238;52.278;21.056;2022-09-27T02:09:22;14.21;77.92
67354;SHT30;54238;52.278;21.056;2022-09-27T02:12:05;14.23;77.91
67354;SHT30;54238;52.278;21.056;2022-09-27T02:14:41;14.23;77.92
67354;SHT30;54238;52.278;21.056;2022-09-27T02:17:21;14.24;77.95
67354;SHT30;54238;52.278;21.056;2022-09-27T02:20:10;14.24;77.92
67354;SHT30;54238;52.278;21.056;2022-09-27T02:26:14;14.20;77.97
67354;SHT30;54238;52.278;21.056;2022-09-27T02:28:58;14.18;77.98
67354;SHT30;54238;52.278;21.056;2022-09-27T02:31:35;14.17;78.01
67354;SHT30;54238;52.278;21.056;2022-09-27T02:34:09;14.16;78.00
67354;SHT30;54238;52.278;21.056;2022-09-27T02:36:45;14.14;78.03
67354;SHT30;54238;52.278;21.056;2022-09-27T02:39:14;14.12;78.18
67354;SHT30;54238;52.278;21.056;2022-09-27T02:41:43;14.10;78.24
67354;SHT30;54238;52.278;21.056;2022-09-27T02:44:15;14.11;78.23
67354;SHT30;54238;52.278;21.056;2022-09-27T02:46:52;14.12;78.18
67354;SHT30;54238;52.278;21.056;2022-09-27T02:55:48;14.08;78.29
67354;SHT30;54238;52.278;21.056;2022-09-27T02:58:41;14.10;78.27
67354;SHT30;54238;52.278;21.056;2022-09-27T03:01:30;14.13;78.30
67354;SHT30;54238;52.278;21.056;2022-09-27T03:04:33;14.15;78.21
67354;SHT30;54238;52.278;21.056;2022-09-27T03:07:09;14.14;78.26
67354;SHT30;54238;52.278;21.056;2022-09-27T03:09:43;14.13;78.30
67354;SHT30;54238;52.278;21.056;2022-09-27T03:12:19;14.14;78.30
67354;SHT30;54238;52.278;21.056;2022-09-27T03:14:56;14.13;78.33
67354;SHT30;54238;52.278;21.056;2022-09-27T03:17:29;14.11;78.35
67354;SHT30;54238;52.278;21.056;2022-09-27T03:19:58;14.10;78.36
67354;SHT30;54238;52.278;21.056;2022-09-27T03:22:27;14.08;78.45
67354;SHT30;54238;52.278;21.056;2022-09-27T03:24:58;14.09;78.49
67354;SHT30;54238;52.278;21.056;2022-09-27T03:27:25;14.11;78.49
67354;SHT30;54238;52.278;21.056;2022-09-27T03:29:52;14.13;78.55
67354;SHT30;54238;52.278;21.056;2022-09-27T03:32:22;14.14;78.53
67354;SHT30;54238;52.278;21.056;2022-09-27T03:34:51;14.16;78.50
67354;SHT30;54238;52.278;21.056;2022-09-27T03:37:20;14.15;78.51
67354;SHT30;54238;52.278;21.056;2022-09-27T03:39:50;14.16;78.51
67354;SHT30;54238;52.278;21.056;2022-09-27T03:42:19;14.15;78.52
67354;SHT30;54238;52.278;21.056;2022-09-27T03:44:47;14.15;78.48
67354;SHT30;54238;52.278;21.056;2022-09-27T03:47:17;14.12;78.49
67354;SHT30;54238;52.278;21.056;2022-09-27T03:49:44;14.13;78.51
67354;SHT30;54238;52.278;21.056;2022-09-27T03:52:13;14.11;78.54
67354;SHT30;54238;52.278;21.056;2022-09-27T03:54:48;14.07;78.64
67354;SHT30;54238;52.278;21.056;2022-09-27T03:57:20;14.01;78.72
67354;SHT30;54238;52.278;21.056;2022-09-27T03:59:52;14.00;78.81
67354;SHT30;54238;52.278;21.056;2022-09-27T04:02:18;14.02;78.84
67354;SHT30;54238;52.278;21.056;2022-09-27T04:05:00;14.05;78.77
67354;SHT30;54238;52.278;21.056;2022-09-27T04:07:31;14.07;78.78
67354;SHT30;54238;52.278;21.056;2022-09-27T04:10:07;14.08;78.69
67354;SHT30;54238;52.278;21.056;2022-09-27T04:12:39;14.08;78.75
67354;SHT30;54238;52.278;21.056;2022-09-27T04:18:00;14.14;78.68
67354;SHT30;54238;52.278;21.056;2022-09-27T04:20:27;14.17;78.70
67354;SHT30;54238;52.278;21.056;2022-09-27T04:22:59;14.20;78.58
67354;SHT30;54238;52.278;21.056;2022-09-27T04:28:21;14.24;78.40
67354;SHT30;54238;52.278;21.056;2022-09-27T04:30:51;14.26;78.45
67354;SHT30;54238;52.278;21.056;2022-09-27T04:33:20;14.27;78.40
67354;SHT30;54238;52.278;21.056;2022-09-27T04:35:55;14.28;78.36
67354;SHT30;54238;52.278;21.056;2022-09-27T04:38:42;14.27;78.25
67354;SHT30;54238;52.278;21.056;2022-09-27T04:41:09;14.26;78.29
67354;SHT30;54238;52.278;21.056;2022-09-27T04:43:36;14.26;78.23
67354;SHT30;54238;52.278;21.056;2022-09-27T04:46:04;14.24;78.25
67354;SHT30;54238;52.278;21.056;2022-09-27T04:48:31;14.22;78.19
67354;SHT30;54238;52.278;21.056;2022-09-27T04:51:00;14.15;78.21
67354;SHT30;54238;52.278;21.056;2022-09-27T04:53:29;14.10;78.27
67354;SHT30;54238;52.278;21.056;2022-09-27T04:55:59;14.08;78.35
67354;SHT30;54238;52.278;21.056;2022-09-27T04:58:32;14.07;78.38
67354;SHT30;54238;52.278;21.056;2022-09-27T05:01:00;14.07;78.41
67354;SHT30;54238;52.278;21.056;2022-09-27T05:03:29;14.07;78.50
67354;SHT30;54238;52.278;21.056;2022-09-27T05:05:59;14.06;78.49
67354;SHT30;54238;52.278;21.056;2022-09-27T05:08:26;14.05;78.50
67354;SHT30;54238;52.278;21.056;2022-09-27T05:10:56;14.04;78.59
67354;SHT30;54238;52.278;21.056;2022-09-27T05:13:29;14.05;78.60
67354;SHT30;54238;52.278;21.056;2022-09-27T05:16:06;14.07;78.69
67354;SHT30;54238;52.278;21.056;2022-09-27T05:18:35;14.09;78.70
67354;SHT30;54238;52.278;21.056;2022-09-27T05:21:05;14.11;78.65
67354;SHT30;54238;52.278;21.056;2022-09-27T05:23:32;14.11;78.59
67354;SHT30;54238;52.278;21.056;2022-09-27T05:26:03;14.09;78.50
67354;SHT30;54238;52.278;21.056;2022-09-27T05:28:34;14.08;78.49
67354;SHT30;54238;52.278;21.056;2022-09-27T05:31:08;14.07;78.56
67354;SHT30;54238;52.278;21.056;2022-09-27T05:33:39;14.07;78.52
67354;SHT30;54238;52.278;21.056;2022-09-27T05:36:07;14.04;78.50
67354;SHT30;54238;52.278;21.056;2022-09-27T05:38:34;14.03;78.61
67354;SHT30;54238;52.278;21.056;2022-09-27T05:41:06;14.04;78.56
67354;SHT30;54238;52.278;21.056;2022-09-27T05:43:35;14.04;78.50
67354;SHT30;54238;52.278;21.056;2022-09-27T05:46:13;14.03;78.57
67354;SHT30;54238;52.278;21.056;2022-09-27T05:48:40;14.02;78.36
67354;SHT30;54238;52.278;21.056;2022-09-27T05:51:14;14.00;78.43
67354;SHT30;54238;52.278;21.056;2022-09-27T05:53:41;13.99;78.33
67354;SHT30;54238;52.278;21.056;2022-09-27T05:56:12;13.97;78.41
67354;SHT30;54238;52.278;21.056;2022-09-27T05:58:44;13.94;78.43
67354;SHT30;54238;52.278;21.056;2022-09-27T06:01:11;13.91;78.35
67354;SHT30;54238;52.278;21.056;2022-09-27T06:03:40;13.89;78.30
67354;SHT30;54238;52.278;21.056;2022-09-27T06:06:11;13.84;77.99
67354;SHT30;54238;52.278;21.056;2022-09-27T06:08:40;13.75;77.87
67354;SHT30;54238;52.278;21.056;2022-09-27T06:11:11;13.70;77.96
67354;SHT30;54238;52.278;21.056;2022-09-27T06:13:45;13.65;78.21
67354;SHT30;54238;52.278;21.056;2022-09-27T06:16:14;13.59;78.19
67354;SHT30;54238;52.278;21.056;2022-09-27T06:18:44;13.55;78.30
67354;SHT30;54238;52.278;21.056;2022-09-27T06:21:15;13.50;78.37
67354;SHT30;54238;52.278;21.056;2022-09-27T06:26:50;13.44;78.52
67354;SHT30;54238;52.278;21.056;2022-09-27T06:29:21;13.41;78.50
67354;SHT30;54238;52.278;21.056;2022-09-27T06:31:54;13.37;78.74
67354;SHT30;54238;52.278;21.056;2022-09-27T06:34:26;13.35;78.87
67354;SHT30;54238;52.278;21.056;2022-09-27T06:36:58;13.38;79.03
67354;SHT30;54238;52.278;21.056;2022-09-27T06:39:32;13.41;78.99
67354;SHT30;54238;52.278;21.056;2022-09-27T06:42:00;13.44;78.96
67354;SHT30;54238;52.278;21.056;2022-09-27T06:44:42;13.44;78.96
67354;SHT30;54238;52.278;21.056;2022-09-27T06:47:12;13.46;79.10
67354;SHT30;54238;52.278;21.056;2022-09-27T06:52:35;13.53;79.01
67354;SHT30;54238;52.278;21.056;2022-09-27T06:55:03;13.58;78.97
67354;SHT30;54238;52.278;21.056;2022-09-27T06:57:31;13.62;78.90
67354;SHT30;54238;52.278;21.056;2022-09-27T07:00:16;13.66;78.85
67354;SHT30;54238;52.278;21.056;2022-09-27T07:02:55;13.67;78.82
67354;SHT30;54238;52.278;21.056;2022-09-27T07:05:27;13.71;78.76
67354;SHT30;54238;52.278;21.056;2022-09-27T07:07:55;13.74;78.75
67354;SHT30;54238;52.278;21.056;2022-09-27T07:10:28;13.76;78.85
67354;SHT30;54238;52.278;21.056;2022-09-27T07:13:06;13.76;78.78
67354;SHT30;54238;52.278;21.056;2022-09-27T07:15:39;13.80;78.85
67354;SHT30;54238;52.278;21.056;2022-09-27T07:18:07;13.87;78.80
67354;SHT30;54238;52.278;21.056;2022-09-27T07:20:39;13.91;78.67
67354;SHT30;54238;52.278;21.056;2022-09-27T07:23:13;13.98;78.61
67354;SHT30;54238;52.278;21.056;2022-09-27T07:28:17;14.03;78.54
67354;SHT30;54238;52.278;21.056;2022-09-27T07:33:27;13.98;78.58
67354;SHT30;54238;52.278;21.056;2022-09-27T07:35:54;14.02;78.69
67354;SHT30;54238;52.278;21.056;2022-09-27T07:38:26;14.08;78.50
67354;SHT30;54238;52.278;21.056;2022-09-27T07:40:55;14.14;78.33
67354;SHT30;54238;52.278;21.056;2022-09-27T07:43:22;14.17;78.27
67354;SHT30;54238;52.278;21.056;2022-09-27T07:45:55;14.19;78.14
67354;SHT30;54238;52.278;21.056;2022-09-27T07:48:26;14.23;78.06
67354;SHT30;54238;52.278;21.056;2022-09-27T07:50:53;14.27;77.93
67354;SHT30;54238;52.278;21.056;2022-09-27T07:53:20;14.29;77.73
67354;SHT30;54238;52.278;21.056;2022-09-27T07:55:50;14.32;77.59
67354;SHT30;54238;52.278;21.056;2022-09-27T07:58:21;14.34;77.28
67354;SHT30;54238;52.278;21.056;2022-09-27T08:00:50;14.36;77.26
67354;SHT30;54238;52.278;21.056;2022-09-27T08:03:19;14.40;77.14
67354;SHT30;54238;52.278;21.056;2022-09-27T08:05:53;14.47;77.14
67354;SHT30;54238;52.278;21.056;2022-09-27T08:08:20;14.56;76.93
67354;SHT30;54238;52.278;21.056;2022-09-27T08:10:47;14.64;76.63
67354;SHT30;54238;52.278;21.056;2022-09-27T08:13:16;14.68;76.52
67354;SHT30;54238;52.278;21.056;2022-09-27T08:15:48;14.76;76.44
67354;SHT30;54238;52.278;21.056;2022-09-27T08:18:20;14.79;75.96
67354;SHT30;54238;52.278;21.056;2022-09-27T08:20:53;14.76;75.85
67354;SHT30;54238;52.278;21.056;2022-09-27T08:23:23;14.78;75.83
67354;SHT30;54238;52.278;21.056;2022-09-27T08:25:53;14.80;75.63
67354;SHT30;54238;52.278;21.056;2022-09-27T08:28:20;14.81;75.58
67354;SHT30;54238;52.278;21.056;2022-09-27T08:30:50;14.82;75.48
67354;SHT30;54238;52.278;21.056;2022-09-27T08:33:20;14.83;75.29
67354;SHT30;54238;52.278;21.056;2022-09-27T08:35:55;14.83;75.24
67354;SHT30;54238;52.278;21.056;2022-09-27T08:38:26;14.82;75.28
67354;SHT30;54238;52.278;21.056;2022-09-27T08:41:11;14.83;75.29
67354;SHT30;54238;52.278;21.056;2022-09-27T08:55:43;14.95;74.76
67354;SHT30;54238;52.278;21.056;2022-09-27T09:01:05;14.91;74.89
67354;SHT30;54238;52.278;21.056;2022-09-27T09:03:42;14.88;75.10
67354;SHT30;54238;52.278;21.056;2022-09-27T09:06:26;14.86;75.19
67354;SHT30;54238;52.278;21.056;2022-09-27T09:09:42;14.87;75.02
67354;SHT30;54238;52.278;21.056;2022-09-27T09:18:57;14.98;74.87
67354;SHT30;54238;52.278;21.056;2022-09-27T09:21:44;15.04;74.83
67354;SHT30;54238;52.278;21.056;2022-09-27T09:35:52;15.09;74.78
67354;SHT30;54238;52.278;21.056;2022-09-27T09:44:04;15.22;74.53
67354;SHT30;54238;52.278;21.056;2022-09-27T09:46:45;15.27;74.24
67354;SHT30;54238;52.278;21.056;2022-09-27T09:52:02;15.40;73.90
67354;SHT30;54238;52.278;21.056;2022-09-27T09:54:41;15.49;73.48
67354;SHT30;54238;52.278;21.056;2022-09-27T09:57:42;15.62;72.91
67354;SHT30;54238;52.278;21.056;2022-09-27T10:00:35;15.68;72.43
67354;SHT30;54238;52.278;21.056;2022-09-27T10:03:09;15.67;72.24
67354;SHT30;54238;52.278;21.056;2022-09-27T10:05:38;15.69;72.32
67354;SHT30;54238;52.278;21.056;2022-09-27T10:08:16;15.72;71.97
67354;SHT30;54238;52.278;21.056;2022-09-27T10:10:50;15.72;71.78
67354;SHT30;54238;52.278;21.056;2022-09-27T10:13:19;15.74;71.60
67354;SHT30;54238;52.278;21.056;2022-09-27T10:16:04;15.73;71.42
67354;SHT30;54238;52.278;21.056;2022-09-27T10:18:41;15.72;71.42
67354;SHT30;54238;52.278;21.056;2022-09-27T10:21:14;15.70;71.40
67354;SHT30;54238;52.278;21.056;2022-09-27T10:24:05;15.67;71.40
67354;SHT30;54238;52.278;21.056;2022-09-27T10:26:42;15.68;71.27
67354;SHT30;54238;52.278;21.056;2022-09-27T10:29:21;15.72;71.11
67354;SHT30;54238;52.278;21.056;2022-09-27T10:31:56;15.77;70.96
67354;SHT30;54238;52.278;21.056;2022-09-27T10:34:30;15.82;70.70
67354;SHT30;54238;52.278;21.056;2022-09-27T10:37:05;15.88;70.58
67354;SHT30;54238;52.278;21.056;2022-09-27T10:39:44;15.92;70.27
67354;SHT30;54238;52.278;21.056;2022-09-27T10:42:47;15.94;69.98
67354;SHT30;54238;52.278;21.056;2022-09-27T10:45:31;15.96;70.09
67354;SHT30;54238;52.278;21.056;2022-09-27T10:48:05;15.98;70.05
67354;SHT30;54238;52.278;21.056;2022-09-27T10:50:35;16.05;70.10
67354;SHT30;54238;52.278;21.056;2022-09-27T10:53:13;16.13;69.82
67354;SHT30;54238;52.278;21.056;2022-09-27T10:55:47;16.16;69.66
67354;SHT30;54238;52.278;21.056;2022-09-27T10:58:18;16.15;69.43
67354;SHT30;54238;52.278;21.056;2022-09-27T11:01:08;16.16;69.59
67354;SHT30;54238;52.278;21.056;2022-09-27T11:03:48;16.22;69.57
67354;SHT30;54238;52.278;21.056;2022-09-27T11:08:50;16.40;69.16
67354;SHT30;54238;52.278;21.056;2022-09-27T11:11:20;16.44;69.16
67354;SHT30;54238;52.278;21.056;2022-09-27T11:16:36;16.49;68.36
67354;SHT30;54238;52.278;21.056;2022-09-27T11:24:48;16.47;68.38
67354;SHT30;54238;52.278;21.056;2022-09-27T11:31:17;16.40;68.48
67354;SHT30;54238;52.278;21.056;2022-09-27T11:34:19;16.41;68.68
67354;SHT30;54238;52.278;21.056;2022-09-27T11:43:04;16.50;68.27
67354;SHT30;54238;52.278;21.056;2022-09-27T11:48:54;16.57;67.68
67354;SHT30;54238;52.278;21.056;2022-09-27T11:52:01;16.56;67.94
67354;SHT30;54238;52.278;21.056;2022-09-27T12:04:07;16.73;66.75
67354;SHT30;54238;52.278;21.056;2022-09-27T12:07:09;16.71;66.48
67354;SHT30;54238;52.278;21.056;2022-09-27T12:09:46;16.66;66.44
67354;SHT30;54238;52.278;21.056;2022-09-27T12:12:23;16.64;66.64
67354;SHT30;54238;52.278;21.056;2022-09-27T12:15:04;16.66;66.55
67354;SHT30;54238;52.278;21.056;2022-09-27T12:17:43;16.71;66.55
67354;SHT30;54238;52.278;21.056;2022-09-27T12:20:21;16.76;66.29
67354;SHT30;54238;52.278;21.056;2022-09-27T12:23:02;16.84;66.28
67354;SHT30;54238;52.278;21.056;2022-09-27T12:25:33;16.94;66.08
67354;SHT30;54238;52.278;21.056;2022-09-27T12:28:13;17.03;65.65
67354;SHT30;54238;52.278;21.056;2022-09-27T12:36:59;17.20;65.00
67354;SHT30;54238;52.278;21.056;2022-09-27T12:39:46;17.21;64.63
67354;SHT30;54238;52.278;21.056;2022-09-27T12:42:21;17.21;64.54
67354;SHT30;54238;52.278;21.056;2022-09-27T12:45:11;17.20;64.66
67354;SHT30;54238;52.278;21.056;2022-09-27T12:50:48;17.36;64.71
67354;SHT30;54238;52.278;21.056;2022-09-27T12:53:27;17.41;64.67
67354;SHT30;54238;52.278;21.056;2022-09-27T13:14:31;17.50;63.84
67354;SHT30;54238;52.278;21.056;2022-09-27T13:17:30;17.47;63.49
67354;SHT30;54238;52.278;21.056;2022-09-27T13:31:09;17.51;63.54
67354;SHT30;54238;52.278;21.056;2022-09-27T13:33:41;17.51;63.54
67354;SHT30;54238;52.278;21.056;2022-09-27T13:46:54;17.43;62.06
67354;SHT30;54238;52.278;21.056;2022-09-27T13:49:30;17.47;61.98
67354;SHT30;54238;52.278;21.056;2022-09-27T13:52:24;17.47;61.95
67354;SHT30;54238;52.278;21.056;2022-09-27T14:00:48;17.83;61.68
67354;SHT30;54238;52.278;21.056;2022-09-27T14:03:29;18.03;61.50
67354;SHT30;54238;52.278;21.056;2022-09-27T14:06:04;18.17;60.56
67354;SHT30;54238;52.278;21.056;2022-09-27T14:08:46;18.27;60.71
67354;SHT30;54238;52.278;21.056;2022-09-27T14:11:39;18.42;60.73
67354;SHT30;54238;52.278;21.056;2022-09-27T14:14:13;18.56;60.45
67354;SHT30;54238;52.278;21.056;2022-09-27T14:16:52;18.63;60.40
67354;SHT30;54238;52.278;21.056;2022-09-27T14:19:25;18.64;59.59
67354;SHT30;54238;52.278;21.056;2022-09-27T14:21:57;18.58;59.65
67354;SHT30;54238;52.278;21.056;2022-09-27T14:29:57;18.56;59.50
67354;SHT30;54238;52.278;21.056;2022-09-27T14:32:46;18.57;59.49
67354;SHT30;54238;52.278;21.056;2022-09-27T14:35:24;18.55;59.53
67354;SHT30;54238;52.278;21.056;2022-09-27T14:38:14;18.49;59.41
67354;SHT30;54238;52.278;21.056;2022-09-27T14:43:28;18.27;59.83
67354;SHT30;54238;52.278;21.056;2022-09-27T14:46:01;18.20;60.18
67354;SHT30;54238;52.278;21.056;2022-09-27T14:48:37;18.18;60.47
67354;SHT30;54238;52.278;21.056;2022-09-27T14:53:42;18.10;60.68
67354;SHT30;54238;52.278;21.056;2022-09-27T14:56:14;18.05;60.99
67354;SHT30;54238;52.278;21.056;2022-09-27T14:58:50;17.99;61.20
67354;SHT30;54238;52.278;21.056;2022-09-27T15:01:28;17.95;61.32
67354;SHT30;54238;52.278;21.056;2022-09-27T15:04:03;17.88;61.52
67354;SHT30;54238;52.278;21.056;2022-09-27T15:06:38;17.83;61.64
67354;SHT30;54238;52.278;21.056;2022-09-27T15:09:05;17.80;61.79
67354;SHT30;54238;52.278;21.056;2022-09-27T15:11:39;17.77;61.74
67354;SHT30;54238;52.278;21.056;2022-09-27T15:14:14;17.71;61.90
67354;SHT30;54238;52.278;21.056;2022-09-27T15:16:48;17.66;61.92
67354;SHT30;54238;52.278;21.056;2022-09-27T15:19:25;17.59;62.17
67354;SHT30;54238;52.278;21.056;2022-09-27T15:22:20;17.50;62.33
67354;SHT30;54238;52.278;21.056;2022-09-27T15:24:49;17.44;62.57
67354;SHT30;54238;52.278;21.056;2022-09-27T15:27:20;17.39;62.82
67354;SHT30;54238;52.278;21.056;2022-09-27T15:29:55;17.35;62.96
67354;SHT30;54238;52.278;21.056;2022-09-27T15:32:30;17.31;63.27
67354;SHT30;54238;52.278;21.056;2022-09-27T15:35:05;17.28;63.29
67354;SHT30;54238;52.278;21.056;2022-09-27T15:37:38;17.29;63.44
67354;SHT30;54238;52.278;21.056;2022-09-27T15:42:57;17.25;63.63
67354;SHT30;54238;52.278;21.056;2022-09-27T15:45:34;17.24;63.58
67354;SHT30;54238;52.278;21.056;2022-09-27T15:48:05;17.22;63.73
67354;SHT30;54238;52.278;21.056;2022-09-27T15:50:45;17.20;63.64
67354;SHT30;54238;52.278;21.056;2022-09-27T15:56:01;17.15;64.01
67354;SHT30;54238;52.278;21.056;2022-09-27T15:58:34;17.13;64.10
67354;SHT30;54238;52.278;21.056;2022-09-27T16:01:03;17.07;64.00
67354;SHT30;54238;52.278;21.056;2022-09-27T16:03:31;17.04;64.10
67354;SHT30;54238;52.278;21.056;2022-09-27T16:06:00;16.97;64.25
67354;SHT30;54238;52.278;21.056;2022-09-27T16:08:29;16.89;64.33
67354;SHT30;54238;52.278;21.056;2022-09-27T16:10:59;16.81;64.43
67354;SHT30;54238;52.278;21.056;2022-09-27T16:13:28;16.73;64.62
67354;SHT30;54238;52.278;21.056;2022-09-27T16:15:58;16.66;64.88
67354;SHT30;54238;52.278;21.056;2022-09-27T16:18:28;16.61;64.97
67354;SHT30;54238;52.278;21.056;2022-09-27T16:20:59;16.57;65.13
67354;SHT30;54238;52.278;21.056;2022-09-27T16:23:30;16.51;65.38
67354;SHT30;54238;52.278;21.056;2022-09-27T16:25:59;16.48;65.64
67354;SHT30;54238;52.278;21.056;2022-09-27T16:28:28;16.42;65.85
67354;SHT30;54238;52.278;21.056;2022-09-27T16:30:59;16.39;65.86
67354;SHT30;54238;52.278;21.056;2022-09-27T16:33:33;16.37;65.92
67354;SHT30;54238;52.278;21.056;2022-09-27T16:36:04;16.33;65.82
67354;SHT30;54238;52.278;21.056;2022-09-27T16:38:41;16.29;65.72
67354;SHT30;54238;52.278;21.056;2022-09-27T16:41:08;16.25;65.88
67354;SHT30;54238;52.278;21.056;2022-09-27T16:43:38;16.21;65.82
67354;SHT30;54238;52.278;21.056;2022-09-27T16:46:10;16.19;65.90
67354;SHT30;54238;52.278;21.056;2022-09-27T16:48:41;16.18;65.87
67354;SHT30;54238;52.278;21.056;2022-09-27T16:54:04;16.11;65.86
67354;SHT30;54238;52.278;21.056;2022-09-27T16:56:36;16.08;65.85
67354;SHT30;54238;52.278;21.056;2022-09-27T16:59:03;16.06;65.88
67354;SHT30;54238;52.278;21.056;2022-09-27T17:01:33;16.04;66.04
67354;SHT30;54238;52.278;21.056;2022-09-27T17:04:00;16.01;66.01
67354;SHT30;54238;52.278;21.056;2022-09-27T17:06:27;16.00;66.09
67354;SHT30;54238;52.278;21.056;2022-09-27T17:09:00;15.97;66.13
67354;SHT30;54238;52.278;21.056;2022-09-27T17:11:32;15.95;66.24
67354;SHT30;54238;52.278;21.056;2022-09-27T17:14:03;15.87;66.43
67354;SHT30;54238;52.278;21.056;2022-09-27T17:16:33;15.84;66.57
67354;SHT30;54238;52.278;21.056;2022-09-27T17:19:00;15.82;66.63
67354;SHT30;54238;52.278;21.056;2022-09-27T17:21:29;15.79;66.78
67354;SHT30;54238;52.278;21.056;2022-09-27T17:24:01;15.77;66.83
67354;SHT30;54238;52.278;21.056;2022-09-27T17:26:31;15.74;66.94
67354;SHT30;54238;52.278;21.056;2022-09-27T17:29:02;15.70;67.08
67354;SHT30;54238;52.278;21.056;2022-09-27T17:31:31;15.68;67.23
67354;SHT30;54238;52.278;21.056;2022-09-27T17:34:02;15.65;67.35
67354;SHT30;54238;52.278;21.056;2022-09-27T17:36:30;15.61;67.34
67354;SHT30;54238;52.278;21.056;2022-09-27T17:39:01;15.58;67.47
67354;SHT30;54238;52.278;21.056;2022-09-27T17:41:30;15.54;67.67
67354;SHT30;54238;52.278;21.056;2022-09-27T17:44:03;15.51;67.72
67354;SHT30;54238;52.278;21.056;2022-09-27T17:46:31;15.46;67.86
67354;SHT30;54238;52.278;21.056;2022-09-27T17:49:05;15.44;68.04
67354;SHT30;54238;52.278;21.056;2022-09-27T17:51:51;15.38;68.07
67354;SHT30;54238;52.278;21.056;2022-09-27T17:54:24;15.32;68.24
67354;SHT30;54238;52.278;21.056;2022-09-27T17:56:53;15.23;68.40
67354;SHT30;54238;52.278;21.056;2022-09-27T17:59:25;15.19;68.62
67354;SHT30;54238;52.278;21.056;2022-09-27T18:01:55;15.15;68.80
67354;SHT30;54238;52.278;21.056;2022-09-27T18:04:27;15.13;68.93
67354;SHT30;54238;52.278;21.056;2022-09-27T18:06:56;15.09;69.06
67354;SHT30;54238;52.278;21.056;2022-09-27T18:09:26;15.04;69.20
67354;SHT30;54238;52.278;21.056;2022-09-27T18:11:53;15.01;69.24
67354;SHT30;54238;52.278;21.056;2022-09-27T18:14:23;14.94;69.37
67354;SHT30;54238;52.278;21.056;2022-09-27T18:16:54;14.83;69.57
67354;SHT30;54238;52.278;21.056;2022-09-27T18:19:25;14.74;69.83
67354;SHT30;54238;52.278;21.056;2022-09-27T18:21:55;14.65;70.01
67354;SHT30;54238;52.278;21.056;2022-09-27T18:24:22;14.58;70.20
67354;SHT30;54238;52.278;21.056;2022-09-27T18:26:50;14.51;70.40
67354;SHT30;54238;52.278;21.056;2022-09-27T18:29:23;14.45;70.63
67354;SHT30;54238;52.278;21.056;2022-09-27T18:31:51;14.40;70.81
67354;SHT30;54238;52.278;21.056;2022-09-27T18:34:21;14.35;71.00
67354;SHT30;54238;52.278;21.056;2022-09-27T18:36:51;14.30;71.18
67354;SHT30;54238;52.278;21.056;2022-09-27T18:39:20;14.27;71.33
67354;SHT30;54238;52.278;21.056;2022-09-27T18:41:49;14.23;71.50
67354;SHT30;54238;52.278;21.056;2022-09-27T18:44:20;14.19;71.66
67354;SHT30;54238;52.278;21.056;2022-09-27T18:46:52;14.17;71.79
67354;SHT30;54238;52.278;21.056;2022-09-27T18:49:19;14.16;71.87
67354;SHT30;54238;52.278;21.056;2022-09-27T18:51:53;14.14;71.97
67354;SHT30;54238;52.278;21.056;2022-09-27T18:54:21;14.10;72.10
67354;SHT30;54238;52.278;21.056;2022-09-27T18:56:51;14.06;72.19
67354;SHT30;54238;52.278;21.056;2022-09-27T18:59:25;14.04;72.22
67354;SHT30;54238;52.278;21.056;2022-09-27T19:01:54;14.04;72.30
67354;SHT30;54238;52.278;21.056;2022-09-27T19:04:21;14.04;72.32
67354;SHT30;54238;52.278;21.056;2022-09-27T19:06:54;14.05;72.33
67354;SHT30;54238;52.278;21.056;2022-09-27T19:09:26;14.05;72.32
67354;SHT30;54238;52.278;21.056;2022-09-27T19:11:58;14.08;72.31
67354;SHT30;54238;52.278;21.056;2022-09-27T19:14:28;14.10;72.26
67354;SHT30;54238;52.278;21.056;2022-09-27T19:16:57;14.11;72.28
67354;SHT30;54238;52.278;21.056;2022-09-27T19:19:27;14.13;72.20
67354;SHT30;54238;52.278;21.056;2022-09-27T19:21:56;14.16;72.12
67354;SHT30;54238;52.278;21.056;2022-09-27T19:24:26;14.17;72.17
67354;SHT30;54238;52.278;21.056;2022-09-27T19:26:53;14.18;72.14
67354;SHT30;54238;52.278;21.056;2022-09-27T19:29:25;14.19;72.09